Time;durP1;ratioP1;P1;durP2;ratioP2;P2;SDS_P1;SDS_P2;PMS_P1;PMS_P2;Temp;Humidity;BMP_temperature;BMP_pressure;BME280_temperature;BME280_humidity;BME280_pressure;Samples;Min_cycle;Max_cycle;Signal;HPM_P1;HPM_P2
2023/05/08 00:00:19;;;;;;;3.20;1.85;;;22.50;1.00;;;;;;5031625;28;20032;-63
2023/05/08 00:02:45;;;;;;;2.30;2.08;;;22.50;1.00;;;;;;5032977;28;20514;-62
2023/05/08 00:05:11;;;;;;;2.83;2.05;;;22.50;1.00;;;;;;5033735;28;20082;-62
2023/05/08 00:07:37;;;;;;;3.50;2.40;;;22.50;1.00;;;;;;5048867;28;20455;-63
2023/05/08 00:10:07;;;;;;;2.60;2.38;;;22.40;1.00;;;;;;5049850;28;20427;-63
2023/05/08 00:12:33;;;;;;;5.57;2.53;;;22.30;1.00;;;;;;5025863;28;20049;-63
2023/05/08 00:14:59;;;;;;;2.83;2.60;;;22.30;1.00;;;;;;5038162;28;20036;-62
2023/05/08 00:17:25;;;;;;;3.42;2.90;;;22.30;1.00;;;;;;5037457;28;20503;-62
2023/05/08 00:19:51;;;;;;;3.50;2.63;;;22.20;1.00;;;;;;5033575;28;20119;-63
2023/05/08 00:22:17;;;;;;;4.35;2.80;;;22.10;1.00;;;;;;5031780;28;20034;-63
2023/05/08 00:24:43;;;;;;;4.28;2.90;;;22.10;1.00;;;;;;5039683;28;20034;-63
2023/05/08 00:27:08;;;;;;;3.30;2.88;;;22.00;1.00;;;;;;5031896;28;20105;-63
2023/05/08 00:29:34;;;;;;;3.83;3.00;;;22.00;1.00;;;;;;5031846;28;20025;-63
2023/05/08 00:32:00;;;;;;;3.42;3.13;;;22.00;1.00;;;;;;5032712;28;20037;-63
2023/05/08 00:34:26;;;;;;;5.68;3.83;;;22.00;1.00;;;;;;5032963;28;20470;-63
2023/05/08 00:36:52;;;;;;;3.95;3.50;;;21.90;1.00;;;;;;5032992;28;20387;-63
2023/05/08 00:39:17;;;;;;;4.10;3.80;;;21.90;1.00;;;;;;5031649;28;20025;-62
2023/05/08 00:41:43;;;;;;;4.90;4.40;;;21.90;1.00;;;;;;5033049;28;20034;-63
2023/05/08 00:44:09;;;;;;;4.78;4.38;;;21.80;1.00;;;;;;5032506;28;20111;-63
2023/05/08 00:46:35;;;;;;;5.00;4.57;;;21.80;1.00;;;;;;5033074;28;20032;-62
2023/05/08 00:49:02;;;;;;;5.20;4.80;;;21.80;1.00;;;;;;5033100;28;20491;-63
2023/05/08 00:51:28;;;;;;;6.70;5.43;;;21.90;1.00;;;;;;5032172;28;20024;-63
2023/05/08 00:53:54;;;;;;;6.05;5.55;;;21.80;1.00;;;;;;5019378;28;20025;-63
2023/05/08 00:56:22;;;;;;;5.90;5.40;;;21.80;1.00;;;;;;5032237;28;20332;-62
2023/05/08 00:58:49;;;;;;;5.35;4.85;;;21.80;1.00;;;;;;5034089;28;20092;-63
2023/05/08 01:01:15;;;;;;;6.18;5.35;;;21.80;1.00;;;;;;5039063;28;20037;-62
2023/05/08 01:03:42;;;;;;;5.53;5.00;;;21.80;1.00;;;;;;5039172;28;20406;-62
2023/05/08 01:06:08;;;;;;;5.00;4.50;;;21.70;1.00;;;;;;5039288;28;20079;-62
2023/05/08 01:08:33;;;;;;;7.47;5.80;;;21.70;1.00;;;;;;5039237;28;20025;-63
2023/05/08 01:10:59;;;;;;;6.40;5.80;;;21.50;1.00;;;;;;5032682;28;20018;-62
2023/05/08 01:13:41;;;;;;;5.93;5.30;;;21.50;1.00;;;;;;5031397;28;20483;-63
2023/05/08 01:16:32;;;;;;;7.35;5.28;;;21.40;1.00;;;;;;5053217;28;20026;-62
2023/05/08 01:19:23;;;;;;;9.07;7.03;;;21.50;1.00;;;;;;5039416;28;20455;-62
2023/05/08 01:21:59;;;;;;;7.03;6.38;;;21.40;1.00;;;;;;5033824;28;20052;-63
2023/05/08 01:24:56;;;;;;;8.10;7.05;;;21.40;1.00;;;;;;5038302;28;20805;-62
2023/05/08 01:27:41;;;;;;;8.20;6.72;;;21.40;1.00;;;;;;5037943;28;20029;-62
2023/05/08 01:30:44;;;;;;;8.60;7.80;;;21.50;1.00;;;;;;5036667;28;20070;-62
2023/05/08 01:33:19;;;;;;;8.07;7.35;;;21.40;1.00;;;;;;5030639;28;20030;-63
2023/05/08 01:35:50;;;;;;;9.00;7.50;;;21.40;1.00;;;;;;5034178;28;20120;-62
2023/05/08 01:38:31;;;;;;;8.18;7.32;;;21.40;1.00;;;;;;5037117;28;20029;-63
2023/05/08 01:41:08;;;;;;;8.23;7.43;;;21.40;1.00;;;;;;5036475;28;20128;-63
2023/05/08 01:44:10;;;;;;;8.88;7.95;;;21.50;1.00;;;;;;5038910;28;20042;-63
2023/05/08 01:46:36;;;;;;;9.32;8.35;;;21.50;1.00;;;;;;5038350;28;20029;-62
2023/05/08 01:49:08;;;;;;;9.63;8.68;;;21.40;1.00;;;;;;5037564;28;20049;-62
2023/05/08 01:51:40;;;;;;;10.40;9.30;;;21.40;1.00;;;;;;5038391;28;20030;-62
2023/05/08 01:54:17;;;;;;;10.52;9.45;;;21.40;1.00;;;;;;5038363;28;20060;-62
2023/05/08 01:56:46;;;;;;;11.73;10.63;;;21.30;1.00;;;;;;5036038;28;20024;-62
2023/05/08 01:59:16;;;;;;;13.95;11.48;;;21.30;1.00;;;;;;5036055;28;20091;-64
2023/05/08 02:01:43;;;;;;;20.75;12.43;;;21.30;1.00;;;;;;5038107;28;20467;-64
2023/05/08 02:04:11;;;;;;;18.02;12.75;;;21.20;1.00;;;;;;5036642;28;20045;-64
2023/05/08 02:06:38;;;;;;;15.20;12.18;;;21.10;1.00;;;;;;5037507;28;20033;-64
2023/05/08 02:09:07;;;;;;;19.15;14.27;;;21.10;1.00;;;;;;5038728;28;20043;-62
2023/05/08 02:11:35;;;;;;;21.38;17.02;;;21.10;1.00;;;;;;5019952;28;20459;-62
2023/05/08 02:14:02;;;;;;;27.33;18.77;;;21.00;1.00;;;;;;5027378;28;20029;-62
2023/05/08 02:16:29;;;;;;;21.00;16.73;;;20.90;1.00;;;;;;5034365;28;20026;-62
2023/05/08 02:18:58;;;;;;;22.45;18.08;;;20.50;1.00;;;;;;5034835;28;20032;-63
2023/05/08 02:21:26;;;;;;;22.25;18.60;;;20.30;1.00;;;;;;5034484;28;20017;-63
2023/05/08 02:23:53;;;;;;;23.17;19.35;;;20.10;1.00;;;;;;5035430;28;20037;-63
2023/05/08 02:26:21;;;;;;;42.72;24.08;;;20.00;1.00;;;;;;5033305;28;20030;-62
2023/05/08 02:28:49;;;;;;;25.77;21.52;;;19.80;1.00;;;;;;5034281;28;20033;-62
2023/05/08 02:31:16;;;;;;;31.48;24.08;;;19.60;3.10;;;;;;5035399;28;20175;-62
2023/05/08 02:33:43;;;;;;;33.78;28.05;;;19.20;99.90;;;;;;5035200;28;20029;-61
2023/05/08 02:36:14;;;;;;;33.50;28.25;;;19.30;99.90;;;;;;5033323;28;20026;-62
2023/05/08 02:38:43;;;;;;;32.90;23.45;;;19.30;99.90;;;;;;5034896;28;20468;-61
2023/05/08 02:41:11;;;;;;;26.17;22.27;;;19.30;99.90;;;;;;5035022;28;20081;-61
2023/05/08 02:43:37;;;;;;;28.02;22.58;;;19.20;99.90;;;;;;5035167;28;20394;-60
2023/05/08 02:46:29;;;;;;;27.02;19.08;;;19.00;99.90;;;;;;5033427;28;20097;-60
2023/05/08 02:49:00;;;;;;;20.30;17.98;;;19.00;99.90;;;;;;5034808;28;20490;-60
2023/05/08 02:52:09;;;;;;;12.45;11.25;;;18.70;99.90;;;;;;5035118;28;20029;-60
2023/05/08 02:54:49;;;;;;;16.52;13.77;;;18.40;99.90;;;;;;5023631;28;20044;-60
2023/05/08 02:57:26;;;;;;;15.50;13.85;;;18.40;99.90;;;;;;5032461;28;20073;-60
2023/05/08 03:00:11;;;;;;;19.63;15.90;;;18.40;99.90;;;;;;5034803;28;20476;-61
2023/05/08 03:02:38;;;;;;;;;;;18.30;99.90;;;;;;5034380;28;20494;-60
2023/05/08 03:05:18;;;;;;;15.07;12.07;;;18.20;99.90;;;;;;5034001;28;19909;-60
2023/05/08 03:07:48;;;;;;;15.20;13.00;;;18.00;99.90;;;;;;5020807;28;20021;-60
2023/05/08 03:10:16;;;;;;;12.70;11.40;;;17.90;99.90;;;;;;5034790;28;20068;-60
2023/05/08 03:12:48;;;;;;;9.23;8.35;;;17.80;99.90;;;;;;5034471;28;20033;-60
2023/05/08 03:15:26;;;;;;;11.85;10.55;;;17.60;99.90;;;;;;5033937;28;20402;-60
2023/05/08 03:17:57;;;;;;;12.48;10.43;;;17.50;99.90;;;;;;5029554;28;20026;-60
2023/05/08 03:20:25;;;;;;;13.10;11.73;;;17.70;99.90;;;;;;5026890;28;20100;-60
2023/05/08 03:22:54;;;;;;;11.93;10.30;;;17.80;99.90;;;;;;5033209;28;20025;-61
2023/05/08 03:25:20;;;;;;;14.35;12.50;;;17.50;99.90;;;;;;5033465;28;20025;-60
2023/05/08 03:27:47;;;;;;;13.60;12.25;;;17.60;99.90;;;;;;5034110;28;20061;-60
2023/05/08 03:30:14;;;;;;;16.25;13.85;;;17.60;99.90;;;;;;5034208;28;20116;-61
2023/05/08 03:32:41;;;;;;;17.48;14.98;;;17.70;99.90;;;;;;5033363;28;20035;-61
2023/05/08 03:35:08;;;;;;;19.75;15.77;;;17.80;99.90;;;;;;5033056;28;20017;-61
2023/05/08 03:37:34;;;;;;;15.15;13.55;;;17.80;99.90;;;;;;5034254;28;20021;-61
2023/05/08 03:40:00;;;;;;;21.65;15.93;;;17.70;99.90;;;;;;5033734;28;20037;-61
2023/05/08 03:42:26;;;;;;;15.65;14.15;;;17.70;99.90;;;;;;5033265;28;20447;-61
2023/05/08 03:44:53;;;;;;;18.10;15.73;;;17.70;99.90;;;;;;5020849;28;20513;-60
2023/05/08 03:47:20;;;;;;;20.10;17.67;;;17.70;99.90;;;;;;5047679;28;20022;-61
2023/05/08 03:49:47;;;;;;;13.80;12.43;;;17.80;99.90;;;;;;5033163;28;20482;-60
2023/05/08 03:52:13;;;;;;;17.33;15.52;;;17.70;99.90;;;;;;5033230;28;20104;-60
2023/05/08 03:54:39;;;;;;;18.73;15.95;;;17.60;99.90;;;;;;5033821;28;20025;-62
2023/05/08 03:57:05;;;;;;;17.98;16.08;;;17.60;99.90;;;;;;5033634;28;20029;-61
2023/05/08 03:59:49;;;;;;;17.05;15.32;;;17.60;99.90;;;;;;5033901;28;20060;-61
2023/05/08 04:02:27;;;;;;;16.48;14.38;;;17.50;99.90;;;;;;5032824;28;20048;-60
2023/05/08 04:05:03;;;;;;;16.08;14.25;;;17.50;99.90;;;;;;5033468;28;20033;-61
2023/05/08 04:07:41;;;;;;;16.80;15.02;;;17.50;99.90;;;;;;5031231;28;20061;-60
2023/05/08 04:10:43;;;;;;;16.13;13.48;;;17.60;99.90;;;;;;5038762;28;20160;-60
2023/05/08 04:13:13;;;;;;;13.90;12.60;;;17.50;99.90;;;;;;5021913;28;20083;-61
2023/05/08 04:15:48;;;;;;;17.75;15.32;;;17.50;99.90;;;;;;5034192;28;20026;-60
2023/05/08 04:18:16;;;;;;;13.98;12.65;;;17.50;99.90;;;;;;5033334;28;20018;-61
2023/05/08 04:20:46;;;;;;;19.85;17.27;;;17.50;99.90;;;;;;5033232;28;20018;-60
2023/05/08 04:23:16;;;;;;;17.92;16.02;;;17.60;99.90;;;;;;5032530;28;20037;-61
2023/05/08 04:25:43;;;;;;;19.98;16.42;;;17.60;99.90;;;;;;5032764;28;20028;-61
2023/05/08 04:28:10;;;;;;;19.50;17.52;;;17.60;99.90;;;;;;5033238;28;20025;-61
2023/05/08 04:30:36;;;;;;;22.20;19.20;;;17.70;99.90;;;;;;5032446;28;20459;-61
2023/05/08 04:33:03;;;;;;;23.23;20.70;;;17.70;99.90;;;;;;5032326;28;20043;-61
2023/05/08 04:35:29;;;;;;;19.77;17.65;;;17.70;99.90;;;;;;5033069;28;20463;-61
2023/05/08 04:37:55;;;;;;;20.90;18.17;;;17.70;99.90;;;;;;5033193;28;20017;-61
2023/05/08 04:40:21;;;;;;;26.83;21.23;;;17.60;99.90;;;;;;5032314;28;20385;-61
2023/05/08 04:42:46;;;;;;;23.77;20.67;;;17.70;99.90;;;;;;5031614;28;20037;-61
2023/05/08 04:45:12;;;;;;;21.85;19.55;;;17.80;99.90;;;;;;5032306;28;20080;-62
2023/05/08 04:47:38;;;;;;;21.05;18.85;;;17.70;99.90;;;;;;5031387;28;20132;-61
2023/05/08 04:50:04;;;;;;;21.73;19.15;;;17.80;99.90;;;;;;5032214;28;20074;-61
2023/05/08 04:52:30;;;;;;;19.60;17.60;;;17.80;99.90;;;;;;5030567;28;20037;-62
2023/05/08 04:54:55;;;;;;;19.25;17.25;;;17.70;99.90;;;;;;5032119;28;20021;-61
2023/05/08 04:57:21;;;;;;;21.38;18.55;;;17.80;99.90;;;;;;5030952;28;20045;-61
2023/05/08 04:59:47;;;;;;;21.65;18.48;;;17.80;99.90;;;;;;5032705;28;20451;-62
2023/05/08 05:02:12;;;;;;;20.52;18.10;;;17.80;99.90;;;;;;5028260;28;20392;-61
2023/05/08 05:04:38;;;;;;;20.98;15.90;;;17.90;99.90;;;;;;5031336;28;20061;-61
2023/05/08 05:07:04;;;;;;;20.30;16.85;;;17.80;99.90;;;;;;5032747;28;20463;-61
2023/05/08 05:09:29;;;;;;;21.73;19.48;;;17.80;99.90;;;;;;5033105;28;20353;-61
2023/05/08 05:11:55;;;;;;;22.88;19.52;;;17.90;99.90;;;;;;5032619;28;20028;-61
2023/05/08 05:14:21;;;;;;;18.90;16.90;;;17.90;99.90;;;;;;5031358;28;20406;-62
2023/05/08 05:16:46;;;;;;;20.08;18.08;;;18.00;99.90;;;;;;5032577;28;20542;-61
2023/05/08 05:19:12;;;;;;;14.77;13.43;;;18.00;99.90;;;;;;5021367;28;20105;-61
2023/05/08 05:21:38;;;;;;;17.52;15.75;;;18.00;99.90;;;;;;5032580;28;20435;-61
2023/05/08 05:24:05;;;;;;;17.27;15.30;;;17.90;99.90;;;;;;5031155;28;20064;-61
2023/05/08 05:26:31;;;;;;;18.65;16.45;;;18.00;99.90;;;;;;5031236;28;20018;-61
2023/05/08 05:28:57;;;;;;;19.88;16.67;;;18.00;99.90;;;;;;5027666;28;20025;-61
2023/05/08 05:31:22;;;;;;;18.25;16.35;;;18.00;99.90;;;;;;5030637;28;20387;-61
2023/05/08 05:33:48;;;;;;;17.23;15.40;;;18.00;99.90;;;;;;5021174;28;20032;-61
2023/05/08 05:36:14;;;;;;;19.23;17.33;;;18.00;99.90;;;;;;5028289;28;20045;-62
2023/05/08 05:38:39;;;;;;;20.60;18.50;;;18.00;99.90;;;;;;5025833;28;20022;-62
2023/05/08 05:41:05;;;;;;;21.00;19.00;;;18.10;99.90;;;;;;5023282;28;20083;-62
2023/05/08 05:43:32;;;;;;;23.27;20.80;;;18.00;99.90;;;;;;5032271;28;20052;-62
2023/05/08 05:46:08;;;;;;;22.92;20.55;;;18.00;99.90;;;;;;5034377;28;20036;-62
2023/05/08 05:48:34;;;;;;;23.63;19.58;;;18.10;67.10;;;;;;5036085;28;20120;-62
2023/05/08 05:50:59;;;;;;;20.60;18.50;;;18.10;19.20;;;;;;5036047;28;20107;-62
2023/05/08 05:53:25;;;;;;;20.40;18.30;;;18.20;2.10;;;;;;5036155;28;20022;-62
2023/05/08 05:55:51;;;;;;;22.90;20.42;;;18.20;1.00;;;;;;5035851;28;20029;-62
2023/05/08 05:58:17;;;;;;;17.63;15.90;;;18.30;1.00;;;;;;5035961;28;20017;-62
2023/05/08 06:00:43;;;;;;;18.42;16.63;;;18.20;1.00;;;;;;5035055;28;20085;-62
2023/05/08 06:03:12;;;;;;;17.25;15.45;;;18.10;1.00;;;;;;5035655;28;20155;-62
2023/05/08 06:05:39;;;;;;;17.65;15.88;;;18.20;1.00;;;;;;5034593;28;20113;-62
2023/05/08 06:08:05;;;;;;;18.33;16.42;;;18.20;1.00;;;;;;5035955;28;20026;-62
2023/05/08 06:10:31;;;;;;;20.20;16.60;;;18.30;1.00;;;;;;5036048;28;20036;-62
2023/05/08 06:12:56;;;;;;;19.15;16.75;;;18.30;1.00;;;;;;5035533;28;20029;-62
2023/05/08 06:15:22;;;;;;;17.45;15.57;;;18.30;1.00;;;;;;5034447;28;20108;-62
2023/05/08 06:17:48;;;;;;;18.25;16.35;;;18.40;1.00;;;;;;5035828;28;20031;-61
2023/05/08 06:20:13;;;;;;;24.17;16.70;;;18.40;1.00;;;;;;5035518;28;20033;-62
2023/05/08 06:22:40;;;;;;;17.00;15.25;;;18.40;1.00;;;;;;5034504;28;20407;-62
2023/05/08 06:25:07;;;;;;;17.35;14.88;;;18.50;1.00;;;;;;5035477;28;20029;-62
2023/05/08 06:27:35;;;;;;;17.25;14.63;;;18.50;1.00;;;;;;5035219;28;20391;-62
2023/05/08 06:30:03;;;;;;;15.93;14.27;;;18.60;1.00;;;;;;5035385;28;20052;-62
2023/05/08 06:32:29;;;;;;;15.45;13.55;;;18.60;1.00;;;;;;5024692;28;20018;-62
2023/05/08 06:34:55;;;;;;;15.40;13.90;;;18.60;1.00;;;;;;5033160;28;20034;-62
2023/05/08 06:37:21;;;;;;;16.13;14.48;;;18.70;1.00;;;;;;5035095;28;20121;-62
2023/05/08 06:39:46;;;;;;;16.55;14.02;;;18.60;1.00;;;;;;5025323;28;20091;-61
2023/05/08 06:42:12;;;;;;;15.63;13.98;;;18.60;1.00;;;;;;5034770;28;20032;-62
2023/05/08 06:44:39;;;;;;;14.07;12.77;;;18.70;1.00;;;;;;5037875;28;20052;-62
2023/05/08 06:47:05;;;;;;;16.80;14.82;;;18.80;1.00;;;;;;5037946;28;20043;-62
2023/05/08 06:49:31;;;;;;;16.55;14.70;;;18.80;1.00;;;;;;5037619;28;20068;-62
2023/05/08 06:51:57;;;;;;;16.65;14.55;;;18.80;1.00;;;;;;5037827;28;20122;-62
2023/05/08 06:54:23;;;;;;;16.40;14.68;;;18.90;1.00;;;;;;5038063;28;20426;-62
2023/05/08 06:56:48;;;;;;;13.52;12.18;;;19.00;1.00;;;;;;5031606;28;20116;-61
2023/05/08 06:59:14;;;;;;;17.30;14.32;;;18.90;1.00;;;;;;5040147;28;20052;-62
2023/05/08 07:01:40;;;;;;;12.20;11.00;;;19.00;1.00;;;;;;5031544;28;20468;-63
2023/05/08 07:04:06;;;;;;;12.85;11.27;;;19.00;1.00;;;;;;5023290;28;20088;-60
2023/05/08 07:06:31;;;;;;;13.02;11.70;;;18.90;1.00;;;;;;5078447;28;20434;-58
2023/05/08 07:08:57;;;;;;;15.13;13.48;;;18.90;1.00;;;;;;5053154;28;20079;-59
2023/05/08 07:11:23;;;;;;;16.42;13.40;;;18.90;1.00;;;;;;5052824;28;20463;-60
2023/05/08 07:13:49;;;;;;;15.70;14.05;;;18.90;1.00;;;;;;5047359;28;20033;-54
2023/05/08 07:16:15;;;;;;;15.40;13.65;;;19.00;1.00;;;;;;5034810;28;20048;-59
2023/05/08 07:18:41;;;;;;;14.82;13.30;;;19.00;1.00;;;;;;5033904;28;20372;-61
2023/05/08 07:21:07;;;;;;;13.07;11.85;;;19.10;1.00;;;;;;5037352;28;20017;-60
2023/05/08 07:23:33;;;;;;;12.32;11.02;;;19.20;1.00;;;;;;5035011;28;20044;-61
2023/05/08 07:25:59;;;;;;;12.35;11.25;;;19.30;1.00;;;;;;5034707;28;20361;-62
2023/05/08 07:28:24;;;;;;;11.85;10.75;;;19.40;1.00;;;;;;5046691;28;20033;-64
2023/05/08 07:30:50;;;;;;;11.80;10.60;;;19.50;1.00;;;;;;5051878;28;20017;-62
2023/05/08 07:33:16;;;;;;;11.30;10.20;;;19.50;1.00;;;;;;5053652;28;20773;-62
2023/05/08 07:35:42;;;;;;;14.70;12.73;;;19.50;1.00;;;;;;5037319;28;20108;-63
2023/05/08 07:38:08;;;;;;;13.48;11.50;;;19.70;1.00;;;;;;5042605;28;20114;-64
2023/05/08 07:40:34;;;;;;;11.05;10.07;;;19.70;1.00;;;;;;5050700;28;20045;-61
2023/05/08 07:42:59;;;;;;;11.75;10.50;;;19.80;1.00;;;;;;5046205;28;20036;-63
2023/05/08 07:45:25;;;;;;;11.50;10.40;;;19.80;1.00;;;;;;5047318;28;20021;-63
2023/05/08 07:47:53;;;;;;;11.05;10.02;;;19.80;1.00;;;;;;5042355;28;20341;-57
2023/05/08 07:50:19;;;;;;;11.40;10.30;;;19.80;1.00;;;;;;5047847;28;20029;-60
2023/05/08 07:52:45;;;;;;;10.15;9.25;;;19.80;1.00;;;;;;5044982;28;20097;-63
2023/05/08 07:55:11;;;;;;;12.05;10.23;;;19.90;1.00;;;;;;5045500;28;20067;-58
2023/05/08 07:57:41;;;;;;;9.65;8.82;;;19.90;1.00;;;;;;5033408;28;20499;-60
2023/05/08 08:00:09;;;;;;;9.85;8.95;;;19.90;1.00;;;;;;5044576;28;20083;-63
2023/05/08 08:02:35;;;;;;;12.52;8.75;;;19.90;1.00;;;;;;5045441;28;20037;-61
2023/05/08 08:05:01;;;;;;;9.23;8.15;;;19.90;1.00;;;;;;5050960;28;20174;-62
2023/05/08 08:07:26;;;;;;;10.55;9.55;;;20.00;1.00;;;;;;5044871;28;20120;-61
2023/05/08 08:09:52;;;;;;;10.32;9.30;;;20.00;1.00;;;;;;5045661;28;20021;-60
2023/05/08 08:12:19;;;;;;;10.05;9.20;;;20.10;1.00;;;;;;5033863;28;20024;-60
2023/05/08 08:14:45;;;;;;;12.68;10.90;;;20.20;1.00;;;;;;5036652;28;20022;-61
2023/05/08 08:17:10;;;;;;;10.85;9.77;;;20.20;1.00;;;;;;5049585;28;20067;-65
2023/05/08 08:19:36;;;;;;;14.13;11.40;;;20.20;1.00;;;;;;5046215;28;20022;-65
2023/05/08 08:22:02;;;;;;;11.80;10.55;;;20.30;1.00;;;;;;5023869;28;20028;-53
2023/05/08 08:24:28;;;;;;;12.25;10.70;;;20.50;1.00;;;;;;5026312;28;20467;-60
2023/05/08 08:26:54;;;;;;;10.60;9.70;;;20.40;1.00;;;;;;5040575;28;20467;-65
2023/05/08 08:29:20;;;;;;;12.10;11.00;;;20.50;1.00;;;;;;5051899;28;20052;-60
2023/05/08 08:31:45;;;;;;;12.43;11.13;;;20.50;1.00;;;;;;5049510;28;20414;-62
2023/05/08 08:34:11;;;;;;;12.57;11.32;;;20.60;1.00;;;;;;5020681;28;20475;-64
2023/05/08 08:36:40;;;;;;;12.52;11.40;;;20.70;1.00;;;;;;5042886;28;20025;-63
2023/05/08 08:39:06;;;;;;;12.50;11.20;;;20.70;1.00;;;;;;5050464;28;20025;-55
2023/05/08 08:41:32;;;;;;;11.27;10.18;;;20.70;1.00;;;;;;5048430;28;20509;-52
2023/05/08 08:43:58;;;;;;;15.70;11.55;;;20.70;1.00;;;;;;5040685;28;20040;-55
2023/05/08 08:46:26;;;;;;;10.57;9.48;;;20.70;1.00;;;;;;5048580;28;20029;-54
2023/05/08 08:48:54;;;;;;;13.20;10.57;;;20.70;1.00;;;;;;5043051;28;20033;-57
2023/05/08 08:51:42;;;;;;;12.70;9.65;;;20.80;1.00;;;;;;5045317;28;20092;-56
2023/05/08 08:54:12;;;;;;;14.48;9.52;;;20.90;1.00;;;;;;5032644;28;20033;-59
2023/05/08 08:56:43;;;;;;;11.93;9.43;;;20.90;1.00;;;;;;5039714;28;20033;-62
2023/05/08 08:59:12;;;;;;;11.68;8.50;;;20.90;1.00;;;;;;5038527;28;20368;-58
2023/05/08 09:01:39;;;;;;;9.38;8.48;;;21.00;1.00;;;;;;5037809;28;20511;-61
2023/05/08 09:04:05;;;;;;;9.27;8.35;;;20.90;1.00;;;;;;5023432;28;20041;-60
2023/05/08 09:06:40;;;;;;;8.98;8.13;;;21.00;1.00;;;;;;5035548;28;20387;-65
2023/05/08 09:09:06;;;;;;;8.32;7.43;;;21.00;1.00;;;;;;5026129;28;20017;-64
2023/05/08 09:11:32;;;;;;;18.58;9.55;;;21.00;1.00;;;;;;5035255;28;20125;-63
2023/05/08 09:13:58;;;;;;;10.10;8.07;;;21.10;1.00;;;;;;5038134;28;20029;-56
2023/05/08 09:16:24;;;;;;;10.27;7.60;;;21.20;1.00;;;;;;5035516;28;20071;-59
2023/05/08 09:18:50;;;;;;;7.07;6.28;;;21.30;1.00;;;;;;5035234;28;20017;-67
2023/05/08 09:21:16;;;;;;;6.18;5.38;;;21.20;1.00;;;;;;5034184;28;20040;-62
2023/05/08 09:24:01;;;;;;;9.35;6.57;;;21.20;1.00;;;;;;5035338;28;20045;-63
2023/05/08 09:26:33;;;;;;;8.07;6.47;;;21.20;1.00;;;;;;5036905;28;20471;-62
2023/05/08 09:29:16;;;;;;;12.02;7.90;;;21.20;1.00;;;;;;5037640;28;20037;-63
2023/05/08 09:31:50;;;;;;;9.52;7.45;;;21.20;1.00;;;;;;5037734;28;20029;-60
2023/05/08 09:34:27;;;;;;;7.65;6.95;;;21.30;1.00;;;;;;5036648;28;20024;-60
2023/05/08 09:37:05;;;;;;;7.47;6.78;;;21.40;1.00;;;;;;5036974;28;20072;-59
2023/05/08 09:39:31;;;;;;;7.05;6.45;;;21.40;1.00;;;;;;5024570;28;20032;-63
2023/05/08 09:41:58;;;;;;;6.57;6.03;;;21.50;1.00;;;;;;5045863;28;20049;-61
2023/05/08 09:44:23;;;;;;;9.05;7.05;;;21.60;1.00;;;;;;5050236;28;20029;-62
2023/05/08 09:46:49;;;;;;;10.10;6.28;;;21.80;1.00;;;;;;5043251;28;20052;-62
2023/05/08 09:49:18;;;;;;;9.73;6.85;;;21.90;1.00;;;;;;5042476;28;20095;-60
2023/05/08 09:51:53;;;;;;;8.00;6.68;;;21.90;1.00;;;;;;5039015;28;20501;-66
2023/05/08 09:54:19;;;;;;;9.80;6.32;;;22.00;1.00;;;;;;5042308;28;20433;-66
2023/05/08 09:56:44;;;;;;;7.60;6.53;;;22.10;1.00;;;;;;5038869;28;20013;-65
2023/05/08 09:59:27;;;;;;;7.25;6.55;;;22.10;1.00;;;;;;5044528;28;20387;-66
2023/05/08 10:01:54;;;;;;;7.97;5.90;;;22.10;1.00;;;;;;5031931;28;20048;-66
2023/05/08 10:04:33;;;;;;;6.70;6.10;;;22.00;1.00;;;;;;5039957;28;20493;-66
2023/05/08 10:06:59;;;;;;;7.05;6.35;;;21.90;1.00;;;;;;5031034;28;20121;-66
2023/05/08 10:09:25;;;;;;;6.50;5.90;;;21.90;1.00;;;;;;5035176;28;20120;-66
2023/05/08 10:12:06;;;;;;;6.53;5.95;;;21.90;1.00;;;;;;5033172;28;20105;-66
2023/05/08 10:14:32;;;;;;;6.38;5.70;;;21.90;1.00;;;;;;5034912;28;20025;-59
2023/05/08 10:17:06;;;;;;;7.00;6.40;;;22.00;1.00;;;;;;5038673;28;20022;-58
2023/05/08 10:19:32;;;;;;;6.47;5.82;;;22.10;1.00;;;;;;5041003;28;20029;-61
2023/05/08 10:22:01;;;;;;;6.90;6.30;;;22.20;1.00;;;;;;5039253;28;20021;-60
2023/05/08 10:24:31;;;;;;;6.03;5.55;;;22.20;1.00;;;;;;5044948;28;20025;-56
2023/05/08 10:27:15;;;;;;;6.68;5.18;;;22.40;1.00;;;;;;5054234;28;20059;-66
2023/05/08 10:29:52;;;;;;;4.68;4.28;;;22.50;1.00;;;;;;5048572;28;20017;-63
2023/05/08 10:32:19;;;;;;;4.05;3.65;;;22.60;1.00;;;;;;5042511;28;21416;-62
2023/05/08 10:34:50;;;;;;;3.50;3.20;;;22.60;1.00;;;;;;5047187;28;20049;-63
2023/05/08 10:37:16;;;;;;;4.40;3.30;;;22.70;1.00;;;;;;5046940;28;20083;-61
2023/05/08 10:39:43;;;;;;;4.70;4.30;;;22.70;1.00;;;;;;5051525;28;20474;-68
2023/05/08 10:42:12;;;;;;;5.28;4.78;;;22.70;1.00;;;;;;5042199;28;20033;-64
2023/05/08 10:44:38;;;;;;;4.20;3.90;;;22.80;1.00;;;;;;5046218;28;20115;-64
2023/05/08 10:47:36;;;;;;;4.47;4.07;;;23.00;1.00;;;;;;5030232;28;20017;-64
2023/05/08 10:50:14;;;;;;;4.65;4.15;;;23.00;1.00;;;;;;5036158;28;20033;-64
2023/05/08 10:52:53;;;;;;;5.32;4.78;;;22.90;1.00;;;;;;5046727;28;20037;-65
2023/05/08 10:55:27;;;;;;;4.18;3.78;;;23.00;1.00;;;;;;5042682;28;20115;-65
2023/05/08 10:58:03;;;;;;;3.72;3.45;;;23.10;1.00;;;;;;5049224;28;20025;-65
2023/05/08 11:00:52;;;;;;;4.05;3.75;;;23.30;1.00;;;;;;5030846;28;20096;-65
2023/05/08 11:03:29;;;;;;;4.22;3.80;;;23.50;1.00;;;;;;5052410;28;20037;-64
2023/05/08 11:05:56;;;;;;;5.32;4.82;;;23.70;1.00;;;;;;5049207;28;20120;-65
2023/05/08 11:08:24;;;;;;;5.35;4.85;;;23.80;1.00;;;;;;5048429;28;20076;-65
2023/05/08 11:11:03;;;;;;;5.20;4.80;;;23.80;1.00;;;;;;5028373;28;20030;-65
2023/05/08 11:13:36;;;;;;;5.35;4.88;;;23.80;1.00;;;;;;5040328;28;20474;-65
2023/05/08 11:16:02;;;;;;;7.95;5.40;;;23.90;1.00;;;;;;5052441;28;20490;-65
2023/05/08 11:18:29;;;;;;;4.40;4.00;;;24.00;1.00;;;;;;5050743;28;20017;-65
2023/05/08 11:21:03;;;;;;;6.50;4.75;;;24.10;1.00;;;;;;5043381;28;20072;-65
2023/05/08 11:23:30;;;;;;;9.38;5.45;;;24.20;1.00;;;;;;5034885;28;20033;-65
2023/05/08 11:26:05;;;;;;;9.80;5.72;;;24.20;1.00;;;;;;5034312;28;20387;-65
2023/05/08 11:28:32;;;;;;;4.82;4.35;;;24.40;1.00;;;;;;5034488;28;20030;-65
2023/05/08 11:31:07;;;;;;;5.00;4.60;;;24.20;1.00;;;;;;5031168;28;20087;-65
2023/05/08 11:33:37;;;;;;;19.27;7.38;;;24.10;1.00;;;;;;5034396;28;20044;-65
2023/05/08 11:36:13;;;;;;;4.80;4.40;;;24.60;1.00;;;;;;5027396;28;20018;-65
2023/05/08 11:38:39;;;;;;;4.10;3.70;;;25.00;1.00;;;;;;5032546;28;20045;-65
2023/05/08 11:41:21;;;;;;;5.05;4.13;;;24.80;1.00;;;;;;5033838;28;20041;-66
2023/05/08 11:44:03;;;;;;;4.28;3.88;;;25.20;1.00;;;;;;5031652;28;20133;-66
2023/05/08 11:46:53;;;;;;;4.70;4.30;;;26.00;1.00;;;;;;5021687;28;20520;-65
2023/05/08 11:49:24;;;;;;;6.20;5.07;;;26.50;1.00;;;;;;5031481;28;20033;-66
2023/05/08 11:51:56;;;;;;;6.20;5.63;;;27.10;1.00;;;;;;5052453;28;20095;-65
2023/05/08 11:54:22;;;;;;;12.80;6.40;;;26.80;1.00;;;;;;5041714;28;20080;-65
2023/05/08 11:56:50;;;;;;;6.07;5.50;;;26.60;1.00;;;;;;5034464;28;20403;-66
2023/05/08 11:59:16;;;;;;;12.25;6.53;;;26.20;1.00;;;;;;5041826;28;20024;-65
2023/05/08 12:01:42;;;;;;;8.05;6.05;;;25.70;1.00;;;;;;5037962;28;20514;-65
2023/05/08 12:04:11;;;;;;;5.70;5.20;;;25.40;1.00;;;;;;5039094;28;20079;-65
2023/05/08 12:06:39;;;;;;;12.77;7.45;;;25.20;1.00;;;;;;5038200;28;20021;-65
2023/05/08 12:09:14;;;;;;;7.82;5.97;;;24.90;1.00;;;;;;5037815;28;20032;-65
2023/05/08 12:11:42;;;;;;;6.22;5.63;;;24.80;1.00;;;;;;5038238;28;20040;-66
2023/05/08 12:14:08;;;;;;;5.47;5.07;;;24.80;1.00;;;;;;5027400;28;20090;-66
2023/05/08 12:16:37;;;;;;;8.05;5.43;;;24.80;1.00;;;;;;5039749;28;20078;-67
2023/05/08 12:19:02;;;;;;;6.63;5.80;;;25.10;1.00;;;;;;5037185;28;20029;-66
2023/05/08 12:21:28;;;;;;;7.00;6.18;;;25.80;1.00;;;;;;5038763;28;20024;-66
2023/05/08 12:23:55;;;;;;;8.85;5.97;;;26.10;1.00;;;;;;5033295;28;20112;-66
2023/05/08 12:26:21;;;;;;;8.02;6.60;;;29.60;1.00;;;;;;5031343;28;20018;-66
2023/05/08 12:28:54;;;;;;;4.57;4.20;;;32.50;1.00;;;;;;5031819;28;20025;-66
2023/05/08 12:31:20;;;;;;;13.95;6.75;;;33.90;1.00;;;;;;5032052;28;20053;-67
2023/05/08 12:33:47;;;;;;;5.30;4.80;;;33.40;1.00;;;;;;5031595;28;20061;-62
2023/05/08 12:36:12;;;;;;;4.60;4.18;;;32.00;1.00;;;;;;5029965;28;20037;-63
2023/05/08 12:38:38;;;;;;;4.38;3.97;;;32.10;1.00;;;;;;5028410;28;20029;-62
2023/05/08 12:41:07;;;;;;;8.05;4.75;;;33.00;1.00;;;;;;5026903;28;20045;-60
2023/05/08 12:43:34;;;;;;;33.08;12.35;;;33.80;1.00;;;;;;5032847;28;20475;-61
2023/05/08 12:46:02;;;;;;;6.10;5.10;;;34.60;99.90;;;;;;5033795;28;20068;-59
2023/05/08 12:48:28;;;;;;;5.18;4.88;;;36.70;99.90;;;;;;5031633;28;20032;-60
2023/05/08 12:50:54;;;;;;;6.32;5.18;;;38.60;99.90;;;;;;5032082;28;20032;-60
2023/05/08 12:53:20;;;;;;;5.07;4.65;;;39.90;99.90;;;;;;5027899;28;20026;-60